Terminal Aerodrome Forecast
Issued by NWS Sterling, VA

Home | Current Version | Previous Version | Text Only | Print | Product List | Glossary On
Versions: 1 2 3 4 5 6 7 8 9 10 11 12 13 14 15 16 17 18 19 20 21 22 23
000
FTUS41 KLWX 271234 AAA
TAFDCA
TAF AMD
KDCA 271234Z 2713/2812 32005KT 5SM -SN SCT029 OVC035
     FM271400 34012G20KT P6SM BKN035
     FM272300 35010KT P6SM SCT050
     FM280300 36006KT P6SM BKN150=

USA.gov is the U.S. government's official web portal to all federal, state and local government web resources and services.